Time;durP1;ratioP1;P1;durP2;ratioP2;P2;SDS_P1;SDS_P2;PMS_P1;PMS_P2;Temp;Humidity;BMP_temperature;BMP_pressure;BME280_temperature;BME280_humidity;BME280_pressure;Samples;Min_cycle;Max_cycle;Signal;HPM_P1;HPM_P2
2023/06/26 00:02:10;;;;;;;5.25;4.65;;;;;;;23.81;100.00;101146.16;5063827;28;20494;-57
2023/06/26 00:04:37;;;;;;;5.85;4.63;;;;;;;23.21;100.00;101075.88;5051966;28;20048;-50
2023/06/26 00:07:03;;;;;;;6.35;4.85;;;;;;;23.55;100.00;101152.81;5051843;28;20118;-51
2023/06/26 00:09:28;;;;;;;5.82;5.03;;;;;;;23.39;100.00;101146.97;5050737;28;20033;-54
2023/06/26 00:11:54;;;;;;;7.28;5.38;;;;;;;22.82;100.00;101078.13;5051339;28;20472;-52
2023/06/26 00:14:20;;;;;;;11.13;5.30;;;;;;;22.73;100.00;101080.69;5052122;28;20036;-53
2023/06/26 00:16:51;;;;;;;5.95;5.10;;;;;;;22.92;100.00;101140.84;5053348;28;20033;-52
2023/06/26 00:19:17;;;;;;;10.75;5.90;;;;;;;22.77;100.00;101127.75;5057736;28;20044;-53
2023/06/26 00:21:47;;;;;;;7.50;5.57;;;;;;;22.35;100.00;101091.72;5075987;28;20086;-53
2023/06/26 00:24:13;;;;;;;8.60;5.22;;;;;;;22.58;100.00;101143.56;5075562;28;20499;-53
2023/06/26 00:26:39;;;;;;;6.80;5.15;;;;;;;22.58;100.00;101154.31;5075957;28;20195;-52
2023/06/26 00:29:04;;;;;;;8.15;5.00;;;;;;;22.55;100.00;101166.13;5075705;28;20549;-55
2023/06/26 00:31:30;;;;;;;8.32;4.57;;;;;;;22.01;100.00;101080.00;5075941;28;20444;-52
2023/06/26 00:33:55;;;;;;;7.50;4.07;;;;;;;22.36;100.00;101153.25;5075920;28;20475;-52
2023/06/26 00:36:22;;;;;;;7.93;4.47;;;;;;;22.32;100.00;101159.84;5056476;28;20051;-55
2023/06/26 00:38:48;;;;;;;7.25;4.35;;;;;;;22.22;100.00;101149.91;5075628;28;20517;-56
2023/06/26 00:41:13;;;;;;;10.25;4.70;;;;;;;22.19;100.00;101158.19;5075827;28;20024;-56
2023/06/26 00:43:39;;;;;;;9.98;4.60;;;;;;;21.71;100.00;101099.25;5075618;28;20073;-52
2023/06/26 00:46:09;;;;;;;8.52;4.13;;;;;;;22.05;100.00;101167.28;5075549;28;20062;-48
2023/06/26 00:48:35;;;;;;;6.10;4.43;;;;;;;21.73;100.00;101125.91;5075520;28;20050;-57
2023/06/26 00:51:00;;;;;;;8.70;4.90;;;;;;;21.94;100.00;101169.91;5075362;28;20044;-48
2023/06/26 00:53:25;;;;;;;8.45;4.88;;;;;;;21.88;100.00;101170.38;5053419;28;20043;-50
2023/06/26 00:55:51;;;;;;;8.73;4.80;;;;;;;21.50;100.00;101106.19;5055564;28;20561;-49
2023/06/26 00:58:17;;;;;;;7.20;4.35;;;;;;;21.77;100.00;101156.88;5055272;28;20483;-49
2023/06/26 01:00:45;;;;;;;9.25;4.55;;;;;;;21.67;100.00;101156.69;5055336;28;20486;-51
2023/06/26 01:03:10;;;;;;;7.82;4.40;;;;;;;21.65;100.00;101168.50;5055144;28;20458;-51
2023/06/26 01:05:36;;;;;;;8.40;4.25;;;;;;;21.39;100.00;101122.19;5055861;28;20041;-54
2023/06/26 01:08:01;;;;;;;6.60;4.03;;;;;;;21.57;100.00;101149.47;5037379;28;20033;-50
2023/06/26 01:10:29;;;;;;;10.85;4.63;;;;;;;21.70;100.00;101169.00;5054490;28;20024;-56
2023/06/26 01:12:55;;;;;;;9.13;4.28;;;;;;;21.27;100.00;101091.81;5037765;28;20120;-51
2023/06/26 01:15:20;;;;;;;11.70;4.72;;;;;;;21.62;100.00;101163.38;5054744;28;20124;-48
2023/06/26 01:17:47;;;;;;;11.30;4.75;;;;;;;21.56;100.00;101159.31;5055131;28;20568;-49
2023/06/26 01:20:13;;;;;;;7.10;4.55;;;;;;;21.53;100.00;101167.56;5054973;28;20039;-52
2023/06/26 01:22:46;;;;;;;9.88;4.20;;;;;;;21.46;100.00;101155.56;5036901;28;20477;-51
2023/06/26 01:25:21;;;;;;;9.30;4.75;;;;;;;21.10;100.00;101102.84;5054778;28;20043;-48
2023/06/26 01:27:49;;;;;;;9.07;4.40;;;;;;;21.01;100.00;101084.78;5036601;28;20541;-48
2023/06/26 01:30:16;;;;;;;8.73;3.97;;;;;;;21.22;100.00;101115.34;5036792;28;20400;-57
2023/06/26 01:32:41;;;;;;;9.23;3.90;;;;;;;21.48;100.00;101148.28;5054576;28;20037;-50
2023/06/26 01:35:07;;;;;;;10.35;4.32;;;;;;;21.18;100.00;101107.66;5055441;28;20074;-53
2023/06/26 01:37:33;;;;;;;6.85;4.50;;;;;;;21.55;100.00;101172.78;5037325;28;20032;-56
2023/06/26 01:39:58;;;;;;;12.75;4.43;;;;;;;21.51;100.00;101164.13;5036935;28;20475;-50
2023/06/26 01:42:24;;;;;;;9.80;4.35;;;;;;;21.45;100.00;101169.94;5053797;28;20044;-54
2023/06/26 01:44:52;;;;;;;10.43;4.70;;;;;;;21.43;100.00;101171.00;5036234;28;20434;-50
2023/06/26 01:47:22;;;;;;;12.35;5.10;;;;;;;21.25;100.00;101157.97;5036369;28;20067;-52
2023/06/26 01:49:50;;;;;;;8.85;4.47;;;;;;;21.37;100.00;101166.09;5036253;28;20447;-53
2023/06/26 01:52:27;;;;;;;10.27;4.40;;;;;;;21.34;100.00;101169.84;5054330;28;20090;-56
2023/06/26 01:55:30;;;;;;;13.98;4.50;;;;;;;21.27;100.00;101171.28;5035765;28;20127;-52
2023/06/26 01:57:56;;;;;;;8.93;4.30;;;;;;;20.75;100.00;101108.00;5053742;28;20491;-52
2023/06/26 02:00:23;;;;;;;7.88;4.28;;;;;;;20.73;100.00;101107.25;5035832;28;20033;-56
2023/06/26 02:02:48;;;;;;;10.32;4.97;;;;;;;20.63;100.00;101095.50;5019818;28;20037;-59
2023/06/26 02:05:14;;;;;;;11.95;5.20;;;;;;;20.62;100.00;101115.19;5053979;28;20036;-49
2023/06/26 02:07:40;;;;;;;11.82;5.10;;;;;;;20.78;100.00;101149.75;5019670;28;20127;-49
2023/06/26 02:10:07;;;;;;;11.50;5.03;;;;;;;20.49;100.00;101114.31;5053802;28;20495;-54
2023/06/26 02:12:32;;;;;;;13.45;5.20;;;;;;;20.43;100.00;101111.22;5053783;28;20032;-59
2023/06/26 02:14:58;;;;;;;13.60;5.40;;;;;;;20.86;100.00;101184.88;5053035;28;20060;-49
2023/06/26 02:17:23;;;;;;;13.65;5.07;;;;;;;20.84;100.00;101175.22;5035981;28;20063;-55
2023/06/26 02:19:48;;;;;;;13.15;5.53;;;;;;;20.33;100.00;101102.13;5053567;28;20031;-50
2023/06/26 02:22:15;;;;;;;12.43;5.18;;;;;;;20.49;100.00;101149.06;5053618;28;20072;-53
2023/06/26 02:24:40;;;;;;;13.20;5.20;;;;;;;20.27;100.00;101115.91;5053344;28;20036;-52
2023/06/26 02:27:06;;;;;;;12.20;5.50;;;;;;;20.64;100.00;101188.16;5053508;28;20400;-55
2023/06/26 02:29:31;;;;;;;10.98;5.60;;;;;;;20.46;100.00;101167.19;5053701;28;20120;-56
2023/06/26 02:31:56;;;;;;;15.68;5.90;;;;;;;20.57;100.00;101189.56;5053117;28;20436;-53
2023/06/26 02:37:46;;;;;;;17.30;5.88;;;;;;;20.55;100.00;101188.78;5057772;28;20551;-52
2023/06/26 02:40:30;;;;;;;12.90;5.38;;;;;;;20.36;100.00;101179.44;5052062;28;20496;-51
2023/06/26 02:42:55;;;;;;;13.63;5.80;;;;;;;20.15;100.00;101163.84;5053516;28;20040;-51
2023/06/26 02:45:20;;;;;;;12.50;5.47;;;;;;;19.76;100.00;101118.38;5034475;28;20041;-50
2023/06/26 02:47:46;;;;;;;15.93;5.32;;;;;;;20.15;100.00;101187.03;5035136;28;20411;-53
2023/06/26 02:50:11;;;;;;;14.68;5.60;;;;;;;20.13;100.00;101197.00;5052718;28;20033;-53
2023/06/26 02:52:36;;;;;;;17.33;5.95;;;;;;;20.11;100.00;101213.13;5055484;28;20068;-54
2023/06/26 02:55:03;;;;;;;14.60;5.63;;;;;;;20.04;100.00;101217.16;5055175;28;20476;-56
2023/06/26 02:57:28;;;;;;;16.02;5.88;;;;;;;19.49;100.00;101133.56;5072768;28;20033;-53
2023/06/26 02:59:53;;;;;;;17.85;6.18;;;;;;;19.54;100.00;101156.34;5055326;28;20040;-53
2023/06/26 03:02:19;;;;;;;16.40;6.28;;;;;;;19.80;100.00;101226.75;5072540;28;20035;-53
2023/06/26 03:04:44;;;;;;;13.65;6.05;;;;;;;19.71;100.00;101216.66;5072853;28;20373;-51
2023/06/26 03:07:09;;;;;;;12.70;5.60;;;;;;;19.69;100.00;101231.09;5071974;28;20056;-54
2023/06/26 03:09:35;;;;;;;17.27;6.05;;;;;;;19.45;100.00;101198.78;5071336;28;20097;-56
2023/06/26 03:12:00;;;;;;;16.35;6.32;;;;;;;19.62;100.00;101239.47;5072707;28;20075;-57
2023/06/26 03:14:26;;;;;;;13.00;6.00;;;;;;;19.58;100.00;101234.44;5072634;28;20089;-50
2023/06/26 03:16:52;;;;;;;15.15;5.80;;;;;;;19.12;100.00;101179.53;5072798;28;20166;-54
2023/06/26 03:19:18;;;;;;;15.70;6.05;;;;;;;19.51;100.00;101233.09;5054576;28;20032;-52
2023/06/26 03:21:43;;;;;;;13.23;5.80;;;;;;;19.44;100.00;101229.13;5072651;28;20040;-50
2023/06/26 03:24:08;;;;;;;15.60;5.50;;;;;;;19.36;100.00;101248.25;5054497;28;20029;-50
2023/06/26 03:26:34;;;;;;;10.60;5.35;;;;;;;19.34;100.00;101247.50;5067062;28;20040;-53
2023/06/26 03:28:59;;;;;;;15.07;6.50;;;;;;;19.30;100.00;101250.41;5072610;28;20036;-55
2023/06/26 03:31:24;;;;;;;13.70;5.65;;;;;;;19.24;100.00;101249.00;5072634;28;20510;-54
2023/06/26 03:33:50;;;;;;;13.25;5.38;;;;;;;19.19;100.00;101245.75;5072510;28;20124;-54
2023/06/26 03:36:15;;;;;;;10.95;6.18;;;;;;;18.70;100.00;101169.69;5072099;28;20059;-59
2023/06/26 03:38:41;;;;;;;14.88;6.22;;;;;;;18.70;100.00;101189.22;5071037;28;20037;-51
2023/06/26 03:41:06;;;;;;;14.60;5.97;;;;;;;19.05;100.00;101254.63;5064118;28;20039;-53
2023/06/26 03:43:31;;;;;;;13.93;4.95;;;;;;;18.57;100.00;101174.03;5034437;28;20036;-54
2023/06/26 03:45:57;;;;;;;14.88;6.85;;;;;;;18.48;100.00;101172.75;5052272;28;20076;-50
2023/06/26 03:48:22;;;;;;;16.77;6.85;;;;;;;18.89;100.00;101247.63;5052283;28;20065;-58
2023/06/26 03:50:47;;;;;;;13.20;5.65;;;;;;;18.84;100.00;101255.03;5034689;28;20562;-58
2023/06/26 03:53:13;;;;;;;14.32;6.18;;;;;;;18.84;100.00;101252.38;5052265;28;20033;-51
2023/06/26 03:55:38;;;;;;;12.82;6.05;;;;;;;18.80;100.00;101264.16;5051963;28;20053;-52
2023/06/26 03:58:04;;;;;;;11.85;5.72;;;;;;;18.81;100.00;101258.75;5048378;28;20392;-50
2023/06/26 04:00:30;;;;;;;13.60;6.38;;;;;;;18.42;100.00;101207.75;5054191;28;20029;-54
2023/06/26 04:02:55;;;;;;;14.82;6.05;;;;;;;18.61;100.00;101251.09;5072392;28;20491;-52
2023/06/26 04:05:20;;;;;;;11.10;5.85;;;;;;;18.71;100.00;101275.41;5072224;28;20483;-53
2023/06/26 04:07:50;;;;;;;10.77;5.25;;;;;;;18.68;100.00;101287.09;5072111;28;20031;-53
2023/06/26 04:10:15;;;;;;;10.57;5.15;;;;;;;18.25;100.00;101223.88;5065008;28;20439;-49
2023/06/26 04:12:40;;;;;;;12.25;5.78;;;;;;;18.58;100.00;101288.59;5051880;28;20037;-56
2023/06/26 04:15:06;;;;;;;9.30;5.07;;;;;;;18.61;100.00;101306.22;5034252;28;20488;-51
2023/06/26 04:17:32;;;;;;;10.88;4.90;;;;;;;18.20;100.00;101237.47;5050728;28;20476;-52
2023/06/26 04:19:57;;;;;;;12.75;5.57;;;;;;;18.61;100.00;101309.75;5052151;28;20040;-50
2023/06/26 04:22:22;;;;;;;11.38;5.22;;;;;;;18.14;100.00;101229.84;5051864;28;20436;-57
2023/06/26 04:24:47;;;;;;;7.18;4.32;;;;;;;18.26;100.00;101226.47;5051506;28;20047;-54
2023/06/26 04:27:16;;;;;;;9.80;3.65;;;;;;;18.79;100.00;101305.16;5051157;28;20033;-57
2023/06/26 04:29:41;;;;;;;9.15;4.90;;;;;;;18.73;100.00;101293.03;5051887;28;20025;-54
2023/06/26 04:32:07;;;;;;;8.77;4.15;;;;;;;18.87;100.00;101318.88;5051802;28;20484;-51
2023/06/26 04:34:34;;;;;;;6.00;3.60;;;;;;;18.92;100.00;101320.31;5051358;28;20029;-56
2023/06/26 04:36:59;;;;;;;8.07;3.72;;;;;;;18.81;100.00;101298.75;5051857;28;20074;-51
2023/06/26 04:39:25;;;;;;;9.85;3.97;;;;;;;18.68;100.00;101276.41;5051562;28;20033;-50
2023/06/26 04:41:50;;;;;;;5.93;3.83;;;;;;;18.73;100.00;101276.16;5051692;28;20120;-53
2023/06/26 04:44:15;;;;;;;6.15;3.50;;;;;;;18.96;100.00;101324.53;5050039;28;20041;-54
2023/06/26 04:46:41;;;;;;;7.68;3.50;;;;;;;18.98;100.00;101327.09;5051756;28;20511;-55
2023/06/26 04:49:07;;;;;;;5.03;3.65;;;;;;;18.91;100.00;101331.94;5051586;28;20486;-51
2023/06/26 04:51:33;;;;;;;6.43;3.92;;;;;;;18.87;100.00;101326.88;5051650;28;20048;-53
2023/06/26 04:53:58;;;;;;;4.63;3.88;;;;;;;18.96;100.00;101345.88;5051398;28;20026;-56
2023/06/26 04:56:23;;;;;;;8.00;3.45;;;;;;;18.56;100.00;101276.31;5051185;28;20064;-54
2023/06/26 04:58:49;;;;;;;5.82;3.47;;;;;;;18.64;100.00;101288.25;5051759;28;20396;-51
2023/06/26 05:01:14;;;;;;;8.23;3.67;;;;;;;18.98;100.00;101359.97;5050675;28;20492;-50
2023/06/26 05:03:39;;;;;;;7.20;4.45;;;;;;;18.99;100.00;101359.03;5054268;28;20044;-52
2023/06/26 05:06:05;;;;;;;12.65;4.15;;;;;;;18.95;100.00;101365.50;5053866;28;20037;-52
2023/06/26 05:08:30;;;;;;;9.40;4.25;;;;;;;18.96;100.00;101369.03;5055411;28;20029;-55
2023/06/26 05:10:58;;;;;;;10.07;4.40;;;;;;;18.95;100.00;101369.97;5054797;28;20041;-50
2023/06/26 05:13:25;;;;;;;7.60;3.65;;;;;;;18.62;100.00;101316.81;5037263;28;20047;-46
2023/06/26 05:15:51;;;;;;;6.30;3.42;;;;;;;18.92;100.00;101368.34;5036960;28;20496;-49
2023/06/26 05:18:17;;;;;;;5.05;3.58;;;;;;;18.71;100.00;101310.06;5052660;28;20045;-51
2023/06/26 05:20:42;;;;;;;4.15;3.75;;;;;;;19.11;100.00;101386.81;5054288;28;20033;-53
2023/06/26 05:23:11;;;;;;;7.40;4.15;;;;;;;19.23;100.00;101372.75;5054553;28;20113;-50
2023/06/26 05:25:37;;;;;;;6.63;4.30;;;;;;;19.09;100.00;101344.19;5054263;28;20037;-50
2023/06/26 05:28:05;;;;;;;8.05;3.53;;;;;;;19.41;100.00;101390.31;5059993;28;20472;-52
2023/06/26 05:30:31;;;;;;;6.38;3.65;;;;;;;19.55;100.00;101387.72;5073756;28;20032;-55
2023/06/26 05:32:59;;;;;;;6.43;3.55;;;;;;;19.81;100.00;101403.94;5073697;28;20024;-57
2023/06/26 05:35:28;;;;;;;5.50;3.13;;;;;;;19.98;100.00;101409.94;5056424;28;20113;-56
2023/06/26 05:37:54;;;;;;;6.40;2.85;;;;;;;19.70;100.00;101351.19;5074447;28;20032;-51
2023/06/26 05:40:20;;;;;;;5.93;2.80;;;;;;;19.77;100.00;101362.31;5074791;28;20383;-53
2023/06/26 05:42:45;;;;;;;9.45;2.97;;;;;;;19.75;100.00;101374.94;5074495;28;20035;-57
2023/06/26 05:45:11;;;;;;;5.10;2.30;;;;;;;19.62;100.00;101381.03;5055780;28;20099;-54
2023/06/26 05:47:37;;;;;;;6.40;2.45;;;;;;;19.85;100.00;101451.72;5054161;28;20029;-53
2023/06/26 05:50:03;;;;;;;5.97;2.20;;;;;;;19.66;100.00;101459.16;5054112;28;20056;-51
2023/06/26 05:52:29;;;;;;;4.97;2.03;;;;;;;19.43;100.00;101473.88;5036131;28;20037;-56
2023/06/26 05:54:58;;;;;;;4.10;2.42;;;;;;;19.36;100.00;101451.13;5053920;28;20044;-57
2023/06/26 05:57:24;;;;;;;6.63;2.25;;;;;;;19.32;100.00;101446.91;5036313;28;20049;-56
2023/06/26 05:59:49;;;;;;;6.30;1.67;;;;;;;19.52;100.00;101469.81;5036477;28;20047;-57
2023/06/26 06:02:14;;;;;;;9.20;2.03;;;;;;;19.33;100.00;101437.94;5054678;28;20472;-58
2023/06/26 06:04:40;;;;;;;4.53;1.88;;;;;;;19.65;100.00;101462.75;5073902;28;20044;-56
2023/06/26 06:07:05;;;;;;;10.48;2.63;;;;;;;19.26;100.00;101396.56;5073689;28;20037;-51
2023/06/26 06:09:30;;;;;;;7.07;1.88;;;;;;;19.63;100.00;101489.59;5073232;28;20040;-54
2023/06/26 06:11:56;;;;;;;9.30;2.80;;;;;;;19.28;100.00;101425.84;5073908;28;20400;-52
2023/06/26 06:14:21;;;;;;;5.57;2.28;;;;;;;19.48;100.00;101478.94;5073395;28;20476;-51
2023/06/26 06:16:46;;;;;;;4.20;1.65;;;;;;;19.43;100.00;101481.91;5067074;28;20476;-54
2023/06/26 06:19:13;;;;;;;7.38;1.60;;;;;;;18.88;100.00;101371.28;5072651;28;20397;-58
2023/06/26 06:21:39;;;;;;;4.88;1.52;;;;;;;19.61;100.00;101498.63;5073373;28;20028;-52
2023/06/26 06:24:06;;;;;;;6.88;1.95;;;;;;;19.36;100.00;101506.31;5055775;28;20449;-50
2023/06/26 06:26:31;;;;;;;3.42;1.20;;;;;;;19.24;100.00;101504.34;5073480;28;20048;-49
2023/06/26 06:28:57;;;;;;;5.90;1.88;;;;;;;18.81;100.00;101434.78;5073491;28;20367;-52
2023/06/26 06:31:22;;;;;;;5.03;1.70;;;;;;;19.17;100.00;101505.69;5072387;28;20094;-53
2023/06/26 06:33:48;;;;;;;5.25;2.08;;;;;;;19.26;100.00;101508.69;5073499;28;20456;-56
2023/06/26 06:36:13;;;;;;;6.65;1.55;;;;;;;19.47;100.00;101522.59;5053306;28;20121;-54
2023/06/26 06:38:38;;;;;;;4.97;1.67;;;;;;;19.28;100.00;101468.53;5053382;28;20044;-54
2023/06/26 06:41:03;;;;;;;7.70;2.85;;;;;;;19.24;100.00;101457.19;5053357;28;20040;-55
2023/06/26 06:43:29;;;;;;;6.18;1.50;;;;;;;19.81;100.00;101530.34;5053098;28;20463;-53
2023/06/26 06:45:54;;;;;;;8.80;1.58;;;;;;;19.94;100.00;101522.44;5053108;28;20071;-52
2023/06/26 06:48:19;;;;;;;5.90;1.50;;;;;;;20.01;100.00;101529.16;5052976;28;20087;-56
2023/06/26 06:50:45;;;;;;;6.35;2.10;;;;;;;19.87;100.00;101478.38;5052772;28;20040;-55
2023/06/26 06:53:10;;;;;;;3.47;1.42;;;;;;;20.32;100.00;101536.16;5051228;28;20564;-54
2023/06/26 06:55:35;;;;;;;6.32;1.60;;;;;;;20.39;100.00;101549.09;5035208;28;20123;-53
2023/06/26 06:58:01;;;;;;;5.00;1.67;;;;;;;20.11;100.00;101492.91;5053130;28;20168;-54
2023/06/26 07:00:26;;;;;;;5.57;2.05;;;;;;;20.12;100.00;101510.66;5052900;28;20089;-51
2023/06/26 07:02:53;;;;;;;3.92;1.58;;;;;;;19.76;100.00;101503.03;5053166;28;20210;-54
2023/06/26 07:05:18;;;;;;;5.05;1.50;;;;;;;19.81;100.00;101490.28;5034833;28;20025;-57
2023/06/26 07:07:43;;;;;;;9.82;2.15;;;;;;;19.98;100.00;101505.28;5052691;28;20040;-53
2023/06/26 07:10:12;;;;;;;9.65;2.17;;;;;;;20.33;100.00;101565.50;5034484;28;20138;-52
2023/06/26 07:12:38;;;;;;;9.52;1.80;;;;;;;19.82;100.00;101492.00;5052942;28;20316;-51
2023/06/26 07:15:05;;;;;;;9.35;2.50;;;;;;;20.19;100.00;101546.75;5052961;28;20041;-52
2023/06/26 07:17:34;;;;;;;4.90;1.80;;;;;;;20.06;100.00;101509.22;5051274;28;20032;-50
2023/06/26 07:20:00;;;;;;;5.78;1.80;;;;;;;20.47;100.00;101575.34;5052405;28;20091;-54
2023/06/26 07:22:26;;;;;;;6.28;1.60;;;;;;;20.30;100.00;101543.44;5035140;28;20025;-54
2023/06/26 07:24:51;;;;;;;6.53;1.95;;;;;;;20.58;100.00;101588.91;5051028;28;20056;-50
2023/06/26 07:27:18;;;;;;;3.42;1.60;;;;;;;19.96;100.00;101520.56;5052091;28;20120;-52
2023/06/26 07:29:43;;;;;;;3.40;1.67;;;;;;;20.40;100.00;101579.38;5034125;28;20480;-55
2023/06/26 07:32:08;;;;;;;6.35;2.00;;;;;;;20.62;100.00;101585.97;5034789;28;20124;-55
2023/06/26 07:34:34;;;;;;;9.00;1.77;;;;;;;20.70;100.00;101594.34;5052370;28;20116;-53
2023/06/26 07:36:59;;;;;;;9.30;2.00;;;;;;;20.76;100.00;101587.75;5052640;28;20036;-58
2023/06/26 07:39:25;;;;;;;10.25;1.85;;;;;;;20.84;100.00;101600.69;5052094;28;20033;-50
2023/06/26 07:41:50;;;;;;;6.13;1.70;;;;;;;20.70;100.00;101545.34;5034527;28;20067;-54
2023/06/26 07:44:16;;;;;;;8.05;1.90;;;;;;;20.97;100.00;101613.19;5051682;28;20047;-53
2023/06/26 07:46:41;;;;;;;2.90;1.70;;;;;;;21.38;100.00;101618.59;5034432;28;20032;-57
2023/06/26 07:49:06;;;;;;;5.05;1.55;;;;;;;21.66;100.00;101620.28;5051991;28;20037;-59
2023/06/26 07:51:32;;;;;;;4.03;1.65;;;;;;;21.84;100.00;101625.31;5052529;28;20033;-56
2023/06/26 07:53:57;;;;;;;3.83;1.55;;;;;;;22.31;100.00;101643.56;5052115;28;20032;-50
2023/06/26 07:56:23;;;;;;;4.75;1.38;;;;;;;22.52;100.00;101651.97;5033676;28;20102;-56
2023/06/26 07:58:48;;;;;;;5.28;1.80;;;;;;;22.49;100.00;101598.53;5052191;28;20041;-50
2023/06/26 08:01:13;;;;;;;8.90;1.80;;;;;;;23.31;100.00;101662.47;5050115;28;20033;-56
2023/06/26 08:03:39;;;;;;;5.32;1.60;;;;;;;23.14;100.00;101650.25;5051841;28;20073;-51
2023/06/26 08:06:05;;;;;;;7.25;1.85;;;;;;;22.67;100.00;101655.44;5052146;28;20541;-49
2023/06/26 08:08:30;;;;;;;8.20;2.15;;;;;;;22.55;100.00;101643.72;5051102;28;20041;-52
2023/06/26 08:10:55;;;;;;;6.70;2.45;;;;;;;23.05;100.00;101650.91;5050972;28;20404;-49
2023/06/26 08:13:21;;;;;;;7.07;1.67;;;;;;;22.57;100.00;101606.03;5052026;28;20037;-52
2023/06/26 08:15:46;;;;;;;3.50;1.80;;;;;;;22.46;100.00;101589.81;5033125;28;20037;-56
2023/06/26 08:18:11;;;;;;;5.97;2.05;;;;;;;22.61;100.00;101603.03;5051851;28;20047;-54
2023/06/26 08:20:37;;;;;;;5.70;1.67;;;;;;;23.33;100.00;101639.00;5034244;28;20040;-57
2023/06/26 08:23:03;;;;;;;4.18;1.60;;;;;;;23.40;100.00;101667.19;5052141;28;20037;-52
2023/06/26 08:25:29;;;;;;;4.03;1.50;;;;;;;23.48;100.00;101656.75;5051712;28;20049;-52
2023/06/26 08:27:55;;;;;;;6.60;1.85;;;;;;;23.59;100.00;101621.88;5034102;28;20037;-54
2023/06/26 08:30:20;;;;;;;5.32;1.52;;;;;;;24.10;100.00;101700.50;5051536;28;20063;-51
2023/06/26 08:32:46;;;;;;;8.02;1.77;;;;;;;24.13;100.00;101696.72;5051817;28;20029;-52
2023/06/26 08:35:12;;;;;;;6.32;2.22;;;;;;;23.55;100.00;101635.66;5051658;28;20095;-53
2023/06/26 08:37:37;;;;;;;4.93;1.77;;;;;;;23.32;100.00;101691.88;5034986;28;20033;-51
2023/06/26 08:40:03;;;;;;;7.18;2.03;;;;;;;23.99;100.00;101652.84;5055795;28;20035;-50
2023/06/26 08:42:29;;;;;;;3.95;1.80;;;;;;;24.45;100.00;101705.88;5055405;28;20033;-50
2023/06/26 08:44:54;;;;;;;5.50;1.70;;;;;;;24.38;100.00;101661.56;5055467;28;20037;-58
2023/06/26 08:47:20;;;;;;;5.13;1.90;;;;;;;23.96;100.00;101693.41;5037280;28;20033;-51
2023/06/26 08:50:08;;;;;;;5.00;1.70;;;;;;;25.04;100.00;101725.50;5053260;28;20103;-50
2023/06/26 08:52:41;;;;;;;4.78;1.42;;;;;;;24.89;100.00;101730.28;5055493;28;20025;-51
2023/06/26 08:55:10;;;;;;;5.88;1.70;;;;;;;24.47;100.00;101683.25;5037532;28;20047;-52
2023/06/26 08:57:36;;;;;;;5.78;1.70;;;;;;;24.53;100.00;101655.00;5054299;28;20080;-52
2023/06/26 09:00:02;;;;;;;3.00;1.63;;;;;;;25.24;100.00;101684.38;5053995;28;20056;-53
2023/06/26 09:02:28;;;;;;;3.65;1.92;;;;;;;25.10;100.00;101730.41;5055371;28;20452;-50
2023/06/26 09:04:53;;;;;;;5.40;1.75;;;;;;;24.69;100.00;101670.84;5036647;28;20061;-55
2023/06/26 09:07:19;;;;;;;8.98;2.30;;;;;;;24.96;100.00;101733.31;5054138;28;20045;-55
2023/06/26 09:09:44;;;;;;;10.15;1.83;;;;;;;24.80;100.00;101695.97;5055118;28;20037;-54
2023/06/26 09:12:09;;;;;;;5.63;1.55;;;;;;;24.90;100.00;101717.63;5054845;28;20044;-50
2023/06/26 09:14:36;;;;;;;3.53;1.45;;;;;;;24.55;100.00;101628.81;5053480;28;20041;-51
2023/06/26 09:17:02;;;;;;;11.95;1.90;;;;;;;24.94;100.00;101762.22;5053271;28;20029;-54
2023/06/26 09:19:27;;;;;;;7.25;2.15;;;;;;;24.66;100.00;101689.91;5054718;28;20055;-56
2023/06/26 09:21:54;;;;;;;9.25;1.90;;;;;;;24.87;100.00;101675.66;5054353;28;20060;-60
2023/06/26 09:24:20;;;;;;;5.38;1.85;;;;;;;25.96;100.00;101753.03;5054852;28;20048;-53
2023/06/26 09:26:46;;;;;;;3.85;1.60;;;;;;;25.49;100.00;101756.91;5054455;28;20431;-56
2023/06/26 09:29:13;;;;;;;7.28;1.65;;;;;;;25.11;100.00;101703.34;5054684;28;20132;-55
2023/06/26 09:31:39;;;;;;;7.93;1.85;;;;;;;24.99;100.00;101720.47;5036752;28;20048;-53
2023/06/26 09:34:05;;;;;;;5.95;2.30;;;;;;;25.05;100.00;101713.75;5037089;28;20045;-56
2023/06/26 09:36:33;;;;;;;6.43;2.20;;;;;;;25.73;100.00;101771.09;5054033;28;20043;-55
2023/06/26 09:39:04;;;;;;;8.63;2.03;;;;;;;25.07;100.00;101720.72;5053608;28;20136;-54
2023/06/26 09:41:30;;;;;;;3.00;1.60;;;;;;;25.62;100.00;101783.75;5054297;28;20510;-56
2023/06/26 09:44:02;;;;;;;6.55;2.05;;;;;;;25.49;100.00;101797.34;5054017;28;20040;-51
2023/06/26 09:46:29;;;;;;;5.22;1.70;;;;;;;25.50;100.00;101785.59;5054355;28;20040;-52
2023/06/26 09:49:10;;;;;;;5.50;2.13;;;;;;;25.00;100.00;101794.06;5052982;28;20037;-55
2023/06/26 09:51:36;;;;;;;;;;;;;;;25.26;100.00;101798.28;5054502;28;20051;-52
2023/06/26 09:54:02;;;;;;;8.68;2.45;;;;;;;25.06;100.00;101809.75;5054844;28;20384;-56
2023/06/26 09:56:29;;;;;;;4.57;1.90;;;;;;;24.76;100.00;101799.47;5052676;28;20055;-53
2023/06/26 09:58:59;;;;;;;5.45;1.85;;;;;;;24.93;100.00;101753.28;5054221;28;20029;-55
2023/06/26 10:01:25;;;;;;;4.72;1.60;;;;;;;25.71;100.00;101791.09;5035230;28;20040;-48
2023/06/26 10:03:51;;;;;;;7.97;1.80;;;;;;;25.92;100.00;101791.19;5036532;28;20037;-51
2023/06/26 10:06:19;;;;;;;4.22;1.48;;;;;;;25.70;100.00;101746.22;5054150;28;20044;-54
2023/06/26 10:08:45;;;;;;;7.57;1.80;;;;;;;26.47;100.00;101825.31;5053711;28;20069;-55
2023/06/26 10:11:12;;;;;;;9.35;1.63;;;;;;;25.85;100.00;101806.16;5035977;28;20036;-49
2023/06/26 10:13:46;;;;;;;8.60;1.75;;;;;;;26.26;100.00;101809.03;5036257;28;20037;-49
2023/06/26 10:16:11;;;;;;;6.18;2.03;;;;;;;26.08;100.00;101816.78;5036458;28;20037;-50
2023/06/26 10:18:38;;;;;;;6.95;1.80;;;;;;;25.80;100.00;101805.66;5051239;28;20377;-55
2023/06/26 10:21:05;;;;;;;6.60;1.95;;;;;;;25.96;100.00;101812.38;5073330;28;20043;-51
2023/06/26 10:23:31;;;;;;;6.95;1.90;;;;;;;26.43;100.00;101819.28;5055622;28;20078;-56
2023/06/26 10:25:58;;;;;;;4.35;1.63;;;;;;;26.13;100.00;101837.97;5055734;28;20048;-54
2023/06/26 10:28:25;;;;;;;3.28;1.20;;;;;;;25.28;100.00;101765.81;5056007;28;20090;-54
2023/06/26 10:30:51;;;;;;;4.32;1.13;;;;;;;25.70;100.00;101817.19;5055915;28;20033;-55
2023/06/26 10:33:16;;;;;;;6.80;1.67;;;;;;;25.95;100.00;101801.72;5073520;28;20036;-55
2023/06/26 10:35:45;;;;;;;3.92;1.63;;;;;;;25.89;100.00;101749.09;5060282;28;20036;-51
2023/06/26 10:38:10;;;;;;;4.68;1.45;;;;;;;26.43;100.00;101854.38;5053333;28;20388;-50
2023/06/26 10:40:44;;;;;;;4.03;1.30;;;;;;;26.06;100.00;101855.66;5053595;28;20033;-58
2023/06/26 10:43:11;;;;;;;4.72;1.48;;;;;;;25.94;100.00;101819.75;5053460;28;20059;-54
2023/06/26 10:45:43;;;;;;;4.50;1.92;;;;;;;25.58;100.00;101822.69;5053201;28;20033;-55
2023/06/26 10:48:08;;;;;;;4.00;1.45;;;;;;;26.25;100.00;101853.19;5053007;28;20044;-55
2023/06/26 10:50:37;;;;;;;4.93;1.63;;;;;;;26.51;100.00;101853.75;5052510;28;20044;-55
2023/06/26 10:53:22;;;;;;;4.78;1.50;;;;;;;26.12;100.00;101865.97;5035053;28;20044;-54
2023/06/26 10:55:56;;;;;;;5.95;1.38;;;;;;;25.53;100.00;101804.22;5052985;28;20488;-50
2023/06/26 10:58:34;;;;;;;3.63;1.30;;;;;;;26.07;100.00;101863.63;5052940;28;20381;-52
2023/06/26 11:01:23;;;;;;;3.55;1.30;;;;;;;26.63;100.00;101874.31;5052407;28;20045;-55
2023/06/26 11:04:10;;;;;;;3.83;1.38;;;;;;;27.13;100.00;101870.09;5052653;28;20060;-53
2023/06/26 11:06:38;;;;;;;5.45;1.58;;;;;;;26.62;100.00;101864.53;5035168;28;20024;-56
2023/06/26 11:09:04;;;;;;;6.95;1.80;;;;;;;25.73;100.00;101870.88;5049686;28;20095;-56
2023/06/26 11:11:51;;;;;;;4.32;1.38;;;;;;;25.22;100.00;101887.56;5071398;28;20119;-55
2023/06/26 11:14:17;;;;;;;5.13;1.35;;;;;;;25.52;100.00;101882.50;5071582;28;20032;-51
2023/06/26 11:16:42;;;;;;;3.45;1.77;;;;;;;25.09;100.00;101825.69;5058483;28;20049;-57